createdAt,value
2017-07-29T00:01:17.169Z,19.20
2017-07-29T00:03:44.725Z,19.20
2017-07-29T00:06:12.315Z,19.20
2017-07-29T00:08:39.787Z,19.20
2017-07-29T00:11:07.379Z,19.10
2017-07-29T00:13:34.870Z,19.20
2017-07-29T00:16:02.424Z,19.10
2017-07-29T00:18:29.957Z,19.10
2017-07-29T00:20:58.229Z,19.00
2017-07-29T00:23:26.493Z,19.00
2017-07-29T00:25:54.811Z,19.00
2017-07-29T00:28:22.300Z,19.00
2017-07-29T00:30:49.814Z,19.00
2017-07-29T00:33:17.307Z,19.10
2017-07-29T00:35:44.797Z,19.00
2017-07-29T00:38:13.103Z,19.00
2017-07-29T00:40:40.598Z,19.00
2017-07-29T00:43:08.117Z,18.80
2017-07-29T00:45:35.744Z,18.80
2017-07-29T00:48:03.253Z,18.70
2017-07-29T00:50:30.753Z,18.70
2017-07-29T00:52:58.233Z,18.70
2017-07-29T00:55:25.729Z,18.60
2017-07-29T00:57:53.216Z,18.60
2017-07-29T01:00:20.716Z,18.60
2017-07-29T01:02:48.268Z,18.50
2017-07-29T01:05:15.767Z,18.50
2017-07-29T01:07:43.275Z,18.50
2017-07-29T01:10:10.772Z,18.40
2017-07-29T01:12:38.270Z,18.40
2017-07-29T01:15:05.772Z,18.40
2017-07-29T01:17:34.173Z,18.50
2017-07-29T01:20:01.671Z,18.50
2017-07-29T01:22:29.261Z,18.60
2017-07-29T01:24:56.743Z,18.60
2017-07-29T01:27:24.283Z,18.60
2017-07-29T01:29:51.865Z,18.60
2017-07-29T01:32:19.383Z,18.60
2017-07-29T01:34:46.881Z,18.70
2017-07-29T01:37:15.141Z,18.80
2017-07-29T01:39:43.409Z,18.90
2017-07-29T01:42:10.911Z,18.80
2017-07-29T01:44:38.422Z,18.80
2017-07-29T01:47:05.900Z,18.70
2017-07-29T01:49:33.390Z,18.80
2017-07-29T01:52:00.905Z,18.80
2017-07-29T01:54:28.414Z,18.70
2017-07-29T01:56:55.902Z,18.70
2017-07-29T01:59:23.404Z,18.70
2017-07-29T02:01:50.907Z,18.70
2017-07-29T02:04:18.399Z,18.80
2017-07-29T02:06:45.894Z,18.80
2017-07-29T02:09:13.378Z,18.80
2017-07-29T02:11:40.889Z,18.80
2017-07-29T02:14:08.391Z,18.80
2017-07-29T02:16:35.872Z,18.80
2017-07-29T02:19:03.368Z,18.80
2017-07-29T02:21:30.895Z,18.90
2017-07-29T02:23:58.396Z,18.90
2017-07-29T02:26:25.887Z,18.90
2017-07-29T02:28:53.481Z,18.80
2017-07-29T02:31:20.983Z,18.70
2017-07-29T02:33:48.481Z,18.60
2017-07-29T02:36:16.007Z,18.60
2017-07-29T02:38:43.514Z,18.70
2017-07-29T02:41:11.005Z,18.70
2017-07-29T02:43:38.511Z,18.80
2017-07-29T02:46:06.027Z,18.80
2017-07-29T02:48:33.527Z,18.70
2017-07-29T02:51:01.031Z,18.70
2017-07-29T02:53:28.542Z,18.70
2017-07-29T02:55:56.193Z,18.70
2017-07-29T02:58:23.678Z,18.80
2017-07-29T03:00:51.165Z,18.80
2017-07-29T03:03:18.670Z,18.60
2017-07-29T03:05:46.154Z,18.50
2017-07-29T03:08:13.660Z,18.50
2017-07-29T03:10:41.162Z,18.40
2017-07-29T03:13:08.676Z,18.40
2017-07-29T03:15:36.993Z,18.50
2017-07-29T03:18:04.517Z,18.50
2017-07-29T03:20:32.014Z,18.40
2017-07-29T03:22:59.534Z,18.40
2017-07-29T03:25:27.780Z,18.40
2017-07-29T03:27:55.276Z,18.40
2017-07-29T03:30:22.771Z,18.30
2017-07-29T03:32:50.305Z,18.20
2017-07-29T03:35:17.817Z,18.20
2017-07-29T03:37:45.311Z,18.20
2017-07-29T03:40:12.824Z,18.10
2017-07-29T03:42:40.310Z,18.20
2017-07-29T03:45:07.822Z,18.20
2017-07-29T03:47:35.310Z,18.20
2017-07-29T03:50:02.863Z,18.20
2017-07-29T03:52:30.384Z,18.20
2017-07-29T03:54:57.874Z,18.30
2017-07-29T03:57:25.376Z,18.40
2017-07-29T03:59:52.876Z,18.30
2017-07-29T04:02:20.367Z,18.20
2017-07-29T04:04:47.893Z,18.20
2017-07-29T04:07:15.399Z,18.30
2017-07-29T04:09:43.667Z,18.30
2017-07-29T04:12:11.270Z,18.30
2017-07-29T04:14:38.784Z,18.30
2017-07-29T04:17:06.308Z,18.30
2017-07-29T04:19:33.836Z,18.20
2017-07-29T04:22:01.425Z,18.20
2017-07-29T04:24:28.920Z,18.20
2017-07-29T04:26:56.408Z,18.30
2017-07-29T04:29:24.028Z,18.30
2017-07-29T04:31:51.507Z,18.40
2017-07-29T04:34:18.998Z,18.50
2017-07-29T04:36:46.499Z,18.50
2017-07-29T04:39:13.969Z,18.50
2017-07-29T04:41:41.477Z,18.50
2017-07-29T04:44:08.970Z,18.40
2017-07-29T04:46:36.525Z,18.50
2017-07-29T04:49:04.159Z,18.50
2017-07-29T04:51:31.790Z,18.50
2017-07-29T04:53:59.455Z,18.60
2017-07-29T04:56:26.946Z,18.70
2017-07-29T04:58:54.450Z,18.70
2017-07-29T05:01:21.937Z,18.70
2017-07-29T05:03:49.459Z,18.70
2017-07-29T05:06:16.951Z,18.70
2017-07-29T05:08:44.502Z,18.60
2017-07-29T05:11:12.751Z,18.70
2017-07-29T05:13:40.238Z,18.60
2017-07-29T05:16:08.484Z,18.70
2017-07-29T05:18:35.991Z,18.60
2017-07-29T05:21:03.472Z,18.60
2017-07-29T05:23:30.969Z,18.70
2017-07-29T05:25:58.468Z,18.80
2017-07-29T05:28:26.037Z,18.80
2017-07-29T05:30:53.508Z,18.70
2017-07-29T05:33:21.041Z,18.70
2017-07-29T05:35:48.561Z,18.60
2017-07-29T05:38:16.054Z,18.60
2017-07-29T05:40:44.361Z,18.60
2017-07-29T05:43:11.858Z,18.60
2017-07-29T05:45:39.341Z,18.70
2017-07-29T05:48:06.853Z,18.80
2017-07-29T05:50:34.465Z,19.00
2017-07-29T05:53:02.117Z,19.00
2017-07-29T05:55:29.602Z,19.00
2017-07-29T05:57:57.126Z,18.90
2017-07-29T06:00:24.636Z,18.90
2017-07-29T06:02:52.138Z,18.90
2017-07-29T06:05:19.630Z,19.00
2017-07-29T06:07:47.138Z,19.10
2017-07-29T06:10:14.928Z,19.10
2017-07-29T06:12:42.436Z,19.20
2017-07-29T06:15:10.101Z,19.20
2017-07-29T06:17:37.592Z,19.20
2017-07-29T06:20:05.131Z,19.30
2017-07-29T06:22:32.642Z,19.40
2017-07-29T06:25:00.144Z,19.50
2017-07-29T06:27:27.641Z,19.50
2017-07-29T06:29:55.892Z,19.60
2017-07-29T06:32:23.493Z,19.70
2017-07-29T06:34:51.031Z,19.60
2017-07-29T06:37:18.533Z,19.60
2017-07-29T06:39:46.790Z,19.60
2017-07-29T06:42:15.038Z,19.60
2017-07-29T06:44:42.518Z,19.50
2017-07-29T06:47:09.997Z,19.50
2017-07-29T06:49:37.562Z,19.60
2017-07-29T06:52:05.078Z,19.60
2017-07-29T06:54:32.574Z,19.60
2017-07-29T06:57:00.867Z,19.70
2017-07-29T06:59:28.419Z,19.70
2017-07-29T07:01:55.929Z,19.70
2017-07-29T07:04:23.444Z,19.80
2017-07-29T07:06:50.942Z,19.80
2017-07-29T07:09:18.447Z,20.00
2017-07-29T07:11:45.943Z,19.90
2017-07-29T07:14:13.446Z,19.90
2017-07-29T07:16:40.949Z,20.10
2017-07-29T07:19:08.472Z,20.20
2017-07-29T07:21:35.994Z,20.20
2017-07-29T07:24:03.492Z,20.20
2017-07-29T07:26:31.763Z,20.20
2017-07-29T07:28:59.230Z,20.20
2017-07-29T07:31:27.504Z,20.30
2017-07-29T07:33:55.778Z,20.30
2017-07-29T07:36:24.063Z,20.40
2017-07-29T07:38:52.342Z,20.40
2017-07-29T07:41:20.607Z,20.30
2017-07-29T07:43:48.886Z,20.30
2017-07-29T07:46:17.334Z,20.30
2017-07-29T07:48:44.840Z,20.30
2017-07-29T07:51:12.389Z,20.40
2017-07-29T07:53:39.896Z,20.50
2017-07-29T07:56:07.409Z,20.60
2017-07-29T07:58:35.673Z,20.40
2017-07-29T08:01:03.176Z,20.40
2017-07-29T08:03:30.682Z,20.40
2017-07-29T08:05:58.213Z,20.60
2017-07-29T08:08:25.718Z,20.80
2017-07-29T08:10:53.966Z,21.20
2017-07-29T08:13:21.444Z,21.20
2017-07-29T08:15:49.728Z,21.50
2017-07-29T08:18:17.996Z,21.60
2017-07-29T08:20:45.607Z,21.60
2017-07-29T08:23:13.095Z,21.70
2017-07-29T08:25:40.594Z,21.90
2017-07-29T08:28:08.843Z,21.90
2017-07-29T08:30:36.357Z,21.90
2017-07-29T08:33:03.862Z,22.00
2017-07-29T08:35:31.360Z,22.20
2017-07-29T08:37:58.905Z,22.20
2017-07-29T08:40:27.157Z,22.00
2017-07-29T08:42:54.655Z,22.00
2017-07-29T08:45:22.161Z,22.00
2017-07-29T08:47:50.262Z,21.90
2017-07-29T08:50:17.757Z,21.90
2017-07-29T08:52:45.253Z,21.90
2017-07-29T08:55:12.755Z,21.90
2017-07-29T08:57:40.261Z,22.00
2017-07-29T09:00:07.822Z,22.30
2017-07-29T09:02:35.294Z,22.60
2017-07-29T09:05:02.796Z,22.80
2017-07-29T09:07:30.316Z,23.00
2017-07-29T09:09:57.799Z,23.00
2017-07-29T09:12:25.282Z,22.90
2017-07-29T09:14:52.786Z,22.90
2017-07-29T09:17:20.306Z,23.00
2017-07-29T09:19:47.827Z,22.90
2017-07-29T09:22:15.316Z,23.10
2017-07-29T09:24:42.809Z,23.10
2017-07-29T09:27:10.333Z,23.30
2017-07-29T09:29:37.838Z,23.40
2017-07-29T09:32:05.341Z,23.40
2017-07-29T09:34:32.824Z,23.40
2017-07-29T09:37:00.347Z,23.50
2017-07-29T09:39:28.651Z,24.00
2017-07-29T09:41:56.136Z,24.00
2017-07-29T09:44:23.617Z,24.50
2017-07-29T09:46:51.118Z,24.60
2017-07-29T09:49:18.714Z,24.50
2017-07-29T09:51:46.214Z,24.50
2017-07-29T09:54:13.727Z,24.50
2017-07-29T09:56:41.225Z,24.50
2017-07-29T09:59:08.739Z,24.50
2017-07-29T10:01:36.232Z,24.60
2017-07-29T10:04:03.743Z,24.80
2017-07-29T10:06:31.266Z,25.10
2017-07-29T10:08:58.780Z,25.40
2017-07-29T10:11:26.326Z,25.60
2017-07-29T10:13:53.850Z,25.50
2017-07-29T10:16:22.147Z,25.30
2017-07-29T10:18:49.636Z,25.40
2017-07-29T10:21:17.154Z,25.30
2017-07-29T10:23:44.680Z,25.40
2017-07-29T10:26:12.210Z,25.70
2017-07-29T10:28:39.737Z,25.90
2017-07-29T10:31:07.265Z,25.90
2017-07-29T10:33:34.780Z,26.10
2017-07-29T10:36:02.329Z,26.30
2017-07-29T10:38:29.828Z,26.20
2017-07-29T10:40:57.330Z,26.30
2017-07-29T10:43:25.608Z,26.80
2017-07-29T10:45:53.881Z,27.40
2017-07-29T10:48:22.141Z,27.70
2017-07-29T10:50:49.648Z,27.70
2017-07-29T10:53:17.131Z,28.30
2017-07-29T10:55:44.628Z,28.40
2017-07-29T10:58:12.140Z,27.70
2017-07-29T11:00:39.643Z,27.00
2017-07-29T11:03:07.169Z,26.60
2017-07-29T11:05:34.669Z,26.30
2017-07-29T11:08:02.170Z,26.30
2017-07-29T11:10:29.670Z,26.20
2017-07-29T11:12:57.306Z,26.20
2017-07-29T11:15:24.822Z,26.20
2017-07-29T11:17:52.349Z,26.00
2017-07-29T11:20:19.868Z,26.00
2017-07-29T11:22:47.383Z,25.90
2017-07-29T11:25:15.660Z,25.60
2017-07-29T11:27:44.077Z,25.60
2017-07-29T11:30:11.613Z,25.60
2017-07-29T11:32:39.247Z,25.70
2017-07-29T11:35:06.737Z,25.80
2017-07-29T11:37:34.254Z,25.90
2017-07-29T11:40:01.792Z,26.00
2017-07-29T11:42:29.314Z,26.10
2017-07-29T11:44:56.821Z,26.40
2017-07-29T11:47:24.334Z,26.60
2017-07-29T11:49:51.865Z,27.00
2017-07-29T11:52:19.388Z,27.00
2017-07-29T11:54:46.916Z,26.90
2017-07-29T11:57:14.489Z,28.10
2017-07-29T11:59:42.026Z,30.10
2017-07-29T12:02:09.539Z,31.20
2017-07-29T12:04:37.078Z,30.70
2017-07-29T12:07:04.629Z,29.80
2017-07-29T12:09:32.109Z,29.90
2017-07-29T12:11:59.628Z,31.10
2017-07-29T12:14:27.127Z,31.20
2017-07-29T12:16:54.616Z,30.30
2017-07-29T12:19:22.123Z,30.00
2017-07-29T12:21:49.641Z,30.10
2017-07-29T12:24:17.958Z,29.10
2017-07-29T12:26:45.471Z,29.00
2017-07-29T12:29:13.004Z,28.70
2017-07-29T12:31:40.495Z,28.80
2017-07-29T12:34:08.754Z,29.90
2017-07-29T12:36:36.251Z,29.90
2017-07-29T12:39:03.752Z,30.70
2017-07-29T12:41:33.415Z,31.50
2017-07-29T12:44:04.191Z,32.20
2017-07-29T12:46:33.876Z,32.60
2017-07-29T12:49:03.650Z,33.40
2017-07-29T12:51:32.344Z,33.50
2017-07-29T12:54:02.566Z,33.40
2017-07-29T12:56:33.749Z,33.00
2017-07-29T12:59:03.184Z,32.90
2017-07-29T13:01:33.450Z,32.50
2017-07-29T13:04:03.334Z,31.70
2017-07-29T13:06:30.850Z,31.80
2017-07-29T13:08:58.388Z,32.20
2017-07-29T13:11:26.759Z,31.20
2017-07-29T13:13:54.309Z,31.20
2017-07-29T13:16:22.735Z,31.90
2017-07-29T13:18:50.236Z,31.90
2017-07-29T13:21:17.765Z,32.90
2017-07-29T13:23:45.602Z,32.60
2017-07-29T13:26:13.129Z,31.70
2017-07-29T13:28:40.620Z,30.90
2017-07-29T13:31:08.243Z,30.70
2017-07-29T13:36:12.636Z,30.30
2017-07-29T13:38:40.122Z,29.80
2017-07-29T13:41:07.652Z,29.10
2017-07-29T13:43:35.155Z,28.90
2017-07-29T13:46:02.679Z,28.80
2017-07-29T13:48:30.257Z,28.80
2017-07-29T13:50:57.802Z,28.90
2017-07-29T13:53:25.311Z,28.90
2017-07-29T13:55:53.561Z,29.60
2017-07-29T13:58:21.083Z,29.60
2017-07-29T14:00:48.577Z,30.20
2017-07-29T14:03:16.076Z,30.90
2017-07-29T14:05:43.580Z,31.20
2017-07-29T14:08:11.090Z,31.00
2017-07-29T14:10:39.409Z,29.60
2017-07-29T14:13:06.938Z,29.60
2017-07-29T14:15:34.518Z,29.40
2017-07-29T14:18:02.049Z,29.00
2017-07-29T14:20:29.969Z,28.80
2017-07-29T14:22:57.493Z,28.80
2017-07-29T14:25:25.057Z,28.70
2017-07-29T14:27:52.741Z,28.40
2017-07-29T14:30:20.365Z,28.00
2017-07-29T14:32:47.875Z,28.00
2017-07-29T14:35:15.389Z,28.10
2017-07-29T14:37:43.822Z,28.20
2017-07-29T14:40:11.392Z,28.20
2017-07-29T14:42:38.885Z,28.10
2017-07-29T14:45:06.401Z,28.10
2017-07-29T14:47:33.928Z,28.00
2017-07-29T14:50:03.226Z,27.80
2017-07-29T14:52:32.534Z,27.60
2017-07-29T14:55:00.025Z,27.40
2017-07-29T14:57:27.529Z,27.40
2017-07-29T14:59:55.218Z,27.40
2017-07-29T15:02:22.818Z,27.60
2017-07-29T15:04:50.337Z,27.80
2017-07-29T15:07:17.828Z,27.80
2017-07-29T15:09:45.362Z,27.90
2017-07-29T15:12:12.857Z,27.90
2017-07-29T15:14:40.399Z,27.60
2017-07-29T15:17:08.061Z,27.50
2017-07-29T15:19:35.543Z,27.50
2017-07-29T15:22:03.080Z,27.40
2017-07-29T15:24:30.587Z,27.40
2017-07-29T15:26:58.224Z,27.40
2017-07-29T15:29:25.732Z,27.40
2017-07-29T15:31:53.257Z,27.50
2017-07-29T15:34:20.786Z,27.40
2017-07-29T15:36:48.274Z,27.30
2017-07-29T15:39:15.801Z,27.20
2017-07-29T15:41:43.351Z,27.10
2017-07-29T15:44:10.867Z,27.10
2017-07-29T15:46:38.372Z,27.40
2017-07-29T15:49:05.871Z,28.10
2017-07-29T15:51:34.133Z,29.30
2017-07-29T15:54:01.683Z,29.30
2017-07-29T15:56:29.194Z,29.70
2017-07-29T15:58:56.839Z,30.30
2017-07-29T16:01:24.396Z,30.80
2017-07-29T16:03:52.707Z,30.10
2017-07-29T16:06:20.207Z,30.10
2017-07-29T16:08:47.761Z,29.80
2017-07-29T16:11:15.384Z,29.70
2017-07-29T16:13:42.915Z,29.60
2017-07-29T16:16:11.179Z,29.70
2017-07-29T16:18:39.844Z,29.90
2017-07-29T16:21:07.478Z,29.90
2017-07-29T16:23:34.992Z,29.80
2017-07-29T16:26:03.270Z,29.60
2017-07-29T16:28:31.586Z,29.30
2017-07-29T16:30:59.109Z,29.30
2017-07-29T16:33:26.642Z,28.80
2017-07-29T16:35:54.158Z,28.40
2017-07-29T16:38:21.667Z,28.10
2017-07-29T16:40:49.383Z,27.70
2017-07-29T16:43:16.891Z,27.50
2017-07-29T16:45:44.412Z,27.40
2017-07-29T16:48:11.933Z,27.50
2017-07-29T16:50:39.459Z,27.80
2017-07-29T16:53:06.950Z,27.70
2017-07-29T16:55:35.310Z,27.50
2017-07-29T16:58:02.829Z,27.50
2017-07-29T17:00:30.408Z,27.40
2017-07-29T17:02:57.950Z,27.30
2017-07-29T17:05:25.452Z,27.20
2017-07-29T17:07:53.777Z,27.20
2017-07-29T17:10:21.337Z,27.20
2017-07-29T17:12:48.853Z,27.10
2017-07-29T17:15:17.122Z,26.90
2017-07-29T17:17:44.620Z,26.90
2017-07-29T17:20:12.116Z,26.90
2017-07-29T17:22:39.666Z,26.90
2017-07-29T17:25:07.312Z,26.80
2017-07-29T17:27:34.815Z,26.70
2017-07-29T17:30:02.293Z,26.70
2017-07-29T17:32:30.635Z,26.70
2017-07-29T17:34:58.140Z,26.60
2017-07-29T17:37:25.632Z,26.70
2017-07-29T17:39:53.162Z,26.70
2017-07-29T17:42:20.671Z,26.70
2017-07-29T17:44:48.348Z,26.60
2017-07-29T17:47:15.901Z,26.50
2017-07-29T17:49:43.387Z,26.50
2017-07-29T17:52:11.648Z,26.50
2017-07-29T17:54:39.155Z,26.50
2017-07-29T17:57:06.709Z,26.40
2017-07-29T17:59:34.203Z,26.40
2017-07-29T18:02:01.711Z,26.40
2017-07-29T18:04:30.011Z,26.20
2017-07-29T18:06:57.521Z,26.20
2017-07-29T18:09:25.002Z,26.20
2017-07-29T18:11:52.500Z,26.20
2017-07-29T18:14:20.116Z,26.20
2017-07-29T18:16:47.611Z,26.20
2017-07-29T18:19:15.112Z,26.20
2017-07-29T18:21:42.632Z,26.20
2017-07-29T18:24:10.143Z,26.30
2017-07-29T18:26:37.638Z,26.20
2017-07-29T18:29:05.157Z,26.20
2017-07-29T18:31:32.667Z,26.30
2017-07-29T18:34:00.174Z,26.20
2017-07-29T18:36:27.684Z,26.10
2017-07-29T18:38:55.168Z,26.20
2017-07-29T18:41:22.687Z,26.20
2017-07-29T18:43:50.195Z,26.30
2017-07-29T18:46:17.686Z,26.30
2017-07-29T18:48:45.342Z,26.10
2017-07-29T18:51:12.853Z,26.10
2017-07-29T18:53:40.371Z,26.10
2017-07-29T18:56:08.665Z,26.10
2017-07-29T18:58:36.180Z,26.10
2017-07-29T19:01:03.714Z,26.10
2017-07-29T19:03:31.278Z,26.20
2017-07-29T19:05:58.791Z,26.20
2017-07-29T19:08:26.324Z,26.20
2017-07-29T19:10:54.101Z,26.10
2017-07-29T19:13:21.606Z,26.00
2017-07-29T19:15:49.120Z,26.00
2017-07-29T19:18:17.387Z,26.00
2017-07-29T19:20:44.940Z,25.90
2017-07-29T19:23:12.456Z,26.00
2017-07-29T19:25:39.964Z,25.90
2017-07-29T19:28:07.519Z,25.90
2017-07-29T19:30:35.029Z,26.00
2017-07-29T19:33:03.046Z,26.00
2017-07-29T19:35:30.566Z,26.00
2017-07-29T19:37:58.086Z,25.90
2017-07-29T19:40:26.439Z,25.80
2017-07-29T19:42:53.947Z,25.80
2017-07-29T19:45:21.468Z,25.80
2017-07-29T19:47:49.092Z,25.70
2017-07-29T19:50:16.631Z,25.70
2017-07-29T19:52:44.158Z,25.70
2017-07-29T19:55:12.500Z,25.80
2017-07-29T19:57:40.003Z,25.70
2017-07-29T20:00:08.297Z,25.80
2017-07-29T20:02:35.826Z,25.70
2017-07-29T20:05:03.351Z,25.70
2017-07-29T20:07:30.865Z,25.70
2017-07-29T20:09:59.139Z,25.60
2017-07-29T20:12:27.433Z,25.60
2017-07-29T20:14:54.966Z,25.60
2017-07-29T20:17:22.449Z,25.60
2017-07-29T20:19:49.965Z,25.60
2017-07-29T20:22:17.493Z,25.50
2017-07-29T20:24:45.020Z,25.40
2017-07-29T20:27:12.515Z,25.40
2017-07-29T20:29:40.045Z,25.40
2017-07-29T20:32:07.603Z,25.30
2017-07-29T20:34:35.132Z,25.30
2017-07-29T20:37:02.653Z,25.30
2017-07-29T20:39:30.179Z,25.10
2017-07-29T20:41:57.708Z,25.00
2017-07-29T20:44:25.217Z,25.00
2017-07-29T20:46:52.734Z,24.90
2017-07-29T20:49:20.258Z,24.80
2017-07-29T20:51:47.800Z,24.70
2017-07-29T20:54:15.334Z,24.70
2017-07-29T20:56:42.974Z,24.70
2017-07-29T20:59:10.480Z,24.60
2017-07-29T21:01:38.031Z,24.50
2017-07-29T21:04:05.547Z,24.40
2017-07-29T21:06:33.090Z,24.40
2017-07-29T21:09:00.648Z,24.30
2017-07-29T21:11:28.147Z,24.30
2017-07-29T21:13:55.701Z,24.30
2017-07-29T21:16:24.042Z,24.30
2017-07-29T21:18:51.535Z,24.20
2017-07-29T21:21:19.052Z,24.20
2017-07-29T21:23:46.577Z,24.10
2017-07-29T21:26:14.100Z,24.10
2017-07-29T21:28:41.619Z,24.00
2017-07-29T21:31:09.225Z,24.00
2017-07-29T21:33:36.791Z,23.90
2017-07-29T21:36:04.287Z,23.90
2017-07-29T21:38:31.911Z,23.80
2017-07-29T21:40:59.424Z,23.80
2017-07-29T21:43:27.031Z,23.80
2017-07-29T21:45:54.578Z,23.70
2017-07-29T21:48:22.110Z,23.70
2017-07-29T21:50:54.354Z,23.60
2017-07-29T21:53:21.911Z,23.50
2017-07-29T21:55:49.477Z,23.50
2017-07-29T21:58:17.004Z,23.40
2017-07-29T22:00:44.553Z,23.40
2017-07-29T22:03:13.062Z,23.40
2017-07-29T22:05:40.561Z,23.40
2017-07-29T22:08:08.106Z,23.30
2017-07-29T22:10:35.692Z,23.30
2017-07-29T22:13:03.186Z,23.20
2017-07-29T22:15:30.796Z,23.30
2017-07-29T22:17:58.874Z,23.30
2017-07-29T22:20:26.404Z,23.30
2017-07-29T22:22:54.800Z,23.20
2017-07-29T22:25:22.372Z,23.10
2017-07-29T22:27:49.981Z,23.10
2017-07-29T22:30:18.705Z,23.10
2017-07-29T22:32:46.314Z,23.10
2017-07-29T22:35:13.844Z,23.10
2017-07-29T22:37:41.386Z,22.90
2017-07-29T22:40:08.909Z,23.00
2017-07-29T22:42:36.419Z,22.80
2017-07-29T22:45:03.914Z,22.80
2017-07-29T22:47:31.419Z,22.80
2017-07-29T22:49:58.938Z,22.90
2017-07-29T22:52:26.426Z,22.80
2017-07-29T22:54:53.930Z,22.80
2017-07-29T22:57:21.573Z,22.80
2017-07-29T22:59:49.140Z,22.80
2017-07-29T23:02:16.719Z,22.80
2017-07-29T23:04:44.289Z,22.60
2017-07-29T23:07:11.828Z,22.50
2017-07-29T23:09:39.384Z,22.50
2017-07-29T23:12:06.907Z,22.50
2017-07-29T23:14:34.466Z,22.40
2017-07-29T23:17:01.974Z,22.50
2017-07-29T23:19:29.478Z,22.50
2017-07-29T23:21:57.015Z,22.40
2017-07-29T23:24:24.489Z,22.20
2017-07-29T23:26:52.750Z,22.20
2017-07-29T23:29:20.252Z,22.20
2017-07-29T23:31:47.771Z,22.20
2017-07-29T23:34:15.288Z,22.10
2017-07-29T23:36:42.779Z,22.00
2017-07-29T23:39:10.375Z,22.00
2017-07-29T23:41:37.929Z,22.20
2017-07-29T23:44:06.194Z,22.20
2017-07-29T23:46:34.504Z,22.20
2017-07-29T23:49:02.007Z,22.10
2017-07-29T23:51:29.515Z,22.20
2017-07-29T23:53:57.150Z,22.10
2017-07-29T23:56:24.676Z,22.10
2017-07-29T23:58:52.192Z,22.10
